Time;durP1;ratioP1;P1;durP2;ratioP2;P2;SDS_P1;SDS_P2;PMS_P1;PMS_P2;Temp;Humidity;BMP_temperature;BMP_pressure;BME280_temperature;BME280_humidity;BME280_pressure;Samples;Min_cycle;Max_cycle;Signal;HPM_P1;HPM_P2
2021/04/08 00:02:25;;;;;;;5.77;5.17;;;2.30;99.90;;;3.10;76.31;98435.56;5144759;28;20624;-60
2021/04/08 00:04:57;;;;;;;6.53;5.13;;;2.30;99.90;;;3.17;76.14;98430.34;5152786;28;20231;-60
2021/04/08 00:07:29;;;;;;;5.47;4.97;;;2.30;99.90;;;3.21;75.82;98428.13;5124052;29;20298;-59
2021/04/08 00:10:03;;;;;;;6.80;5.80;;;2.40;99.90;;;3.11;76.88;98422.19;5151125;28;20219;-60
2021/04/08 00:12:35;;;;;;;5.93;5.43;;;2.30;99.90;;;3.19;77.26;98419.53;5128022;28;20579;-60
2021/04/08 00:15:11;;;;;;;6.17;5.57;;;2.30;99.90;;;3.12;77.48;98416.41;5152181;28;20204;-59
2021/04/08 00:17:43;;;;;;;6.70;6.10;;;2.30;99.90;;;3.17;77.95;98420.25;5143562;28;20206;-59
2021/04/08 00:20:20;;;;;;;6.83;6.23;;;2.30;99.90;;;3.16;77.80;98421.00;5136396;28;20283;-60
2021/04/08 00:22:52;;;;;;;7.17;6.50;;;2.30;99.90;;;3.16;78.49;98415.94;5138606;28;20323;-60
2021/04/08 00:25:26;;;;;;;6.80;6.17;;;2.20;99.90;;;3.02;78.92;98423.84;5145136;28;20196;-60
2021/04/08 00:27:58;;;;;;;7.13;6.43;;;2.20;99.90;;;3.10;78.85;98417.91;5158915;28;20199;-60
2021/04/08 00:30:30;;;;;;;6.50;5.90;;;2.20;99.90;;;3.11;78.86;98419.66;5144160;28;20212;-56
2021/04/08 00:33:02;;;;;;;6.90;6.13;;;2.20;99.90;;;3.03;79.71;98419.69;5138600;28;20206;-58
2021/04/08 00:35:34;;;;;;;7.30;6.77;;;2.20;99.90;;;2.92;79.42;98423.75;5143941;28;20255;-60
2021/04/08 00:38:07;;;;;;;7.17;6.40;;;2.20;99.90;;;2.95;80.16;98426.56;5134769;28;20232;-59
2021/04/08 00:40:40;;;;;;;6.70;6.10;;;2.10;99.90;;;2.92;80.41;98431.31;5142920;28;20312;-56
2021/04/08 00:43:12;;;;;;;7.30;6.60;;;2.10;99.90;;;2.93;80.15;98435.59;5124149;28;20291;-60
2021/04/08 00:45:45;;;;;;;7.33;6.63;;;2.10;99.90;;;3.00;79.82;98422.81;5134332;28;20211;-59
2021/04/08 00:48:17;;;;;;;8.33;6.53;;;2.10;99.90;;;3.02;79.75;98426.38;5145111;28;20291;-60
2021/04/08 00:50:49;;;;;;;7.13;6.57;;;2.20;99.90;;;3.03;79.76;98425.63;5133074;28;20212;-60
2021/04/08 00:53:24;;;;;;;7.37;6.73;;;2.10;99.90;;;3.04;79.78;98431.59;5134074;28;20231;-59
2021/04/08 00:55:57;;;;;;;7.37;6.80;;;2.20;99.90;;;2.94;80.31;98434.84;5153048;28;20295;-59
2021/04/08 00:58:31;;;;;;;6.60;6.00;;;2.10;99.90;;;2.89;80.07;98436.97;5141956;28;20732;-59
2021/04/08 01:01:04;;;;;;;7.00;6.30;;;2.10;99.90;;;2.89;80.96;98441.09;5139660;28;20271;-59
2021/04/08 01:03:36;;;;;;;7.20;6.53;;;2.10;99.90;;;2.86;81.27;98440.81;5143976;28;20646;-59
2021/04/08 01:06:09;;;;;;;7.57;6.87;;;2.10;99.90;;;2.86;80.49;98448.38;5142118;28;20295;-61
2021/04/08 01:08:41;;;;;;;7.17;6.57;;;2.10;99.90;;;2.90;81.42;98448.81;5136373;28;20635;-60
2021/04/08 01:11:14;;;;;;;9.50;6.90;;;2.10;99.90;;;2.90;81.40;98443.78;5132581;28;20208;-60
2021/04/08 01:13:46;;;;;;;7.60;6.80;;;2.10;99.90;;;2.90;81.71;98451.34;5154480;28;20202;-59
2021/04/08 01:16:28;;;;;;;7.50;6.80;;;2.10;99.90;;;2.90;81.49;98453.00;5148333;28;20311;-60
2021/04/08 01:19:15;;;;;;;6.30;5.70;;;2.10;99.90;;;2.93;81.36;98456.69;5146342;28;20204;-60
2021/04/08 01:21:52;;;;;;;7.10;6.50;;;2.10;99.90;;;2.92;81.48;98454.03;5136686;28;20312;-61
2021/04/08 01:25:04;;;;;;;6.93;6.33;;;2.10;99.90;;;2.95;81.27;98456.84;5152241;28;20191;-61
2021/04/08 01:27:55;;;;;;;7.00;6.40;;;2.20;99.90;;;2.97;81.88;98452.81;5142059;28;20231;-61
2021/04/08 01:30:50;;;;;;;6.73;6.23;;;2.20;99.90;;;2.98;81.36;98462.19;5135666;28;20226;-61
2021/04/08 01:33:29;;;;;;;6.70;6.03;;;2.20;99.90;;;3.00;81.56;98472.41;5142994;28;20196;-61
2021/04/08 01:36:06;;;;;;;7.33;6.67;;;2.20;99.90;;;2.98;81.54;98468.88;5148024;28;20191;-61
2021/04/08 01:38:44;;;;;;;7.00;6.37;;;2.20;99.90;;;2.99;82.04;98471.53;5146273;28;20578;-60
2021/04/08 01:41:20;;;;;;;6.63;6.13;;;2.20;99.90;;;3.05;81.51;98474.66;5126649;28;20783;-60
2021/04/08 01:43:57;;;;;;;7.40;6.80;;;2.20;99.90;;;3.07;81.82;98467.22;5149207;28;20199;-60
2021/04/08 01:46:31;;;;;;;6.60;6.00;;;2.20;99.90;;;3.08;81.74;98464.84;5152995;28;20195;-61
2021/04/08 01:49:05;;;;;;;6.83;6.33;;;2.20;99.90;;;3.06;81.30;98466.34;5146299;28;20667;-60
2021/04/08 01:51:38;;;;;;;6.53;6.03;;;2.20;99.90;;;3.07;81.75;98473.16;5142332;28;20306;-59
2021/04/08 01:54:11;;;;;;;6.87;6.37;;;2.20;99.90;;;3.08;81.50;98474.06;5145683;28;20287;-61
2021/04/08 01:56:44;;;;;;;6.23;5.70;;;2.20;99.90;;;3.08;81.49;98474.94;5145957;28;20303;-61
2021/04/08 01:59:17;;;;;;;6.67;6.17;;;2.20;99.90;;;3.08;81.75;98472.41;5135610;28;20732;-60
2021/04/08 02:01:50;;;;;;;7.17;6.47;;;2.20;99.90;;;3.05;81.22;98479.69;5128386;28;20676;-61
2021/04/08 02:04:24;;;;;;;7.60;6.83;;;2.20;99.90;;;3.08;81.77;98474.94;5139388;28;20196;-60
2021/04/08 02:06:58;;;;;;;7.87;7.27;;;2.30;99.90;;;3.07;81.78;98487.44;5140176;28;20196;-60
2021/04/08 02:09:32;;;;;;;6.80;6.30;;;2.20;99.90;;;3.03;81.60;98486.22;5159919;28;20199;-61
2021/04/08 02:12:08;;;;;;;7.43;6.77;;;2.20;99.90;;;3.07;82.15;98488.31;5145609;28;20239;-61
2021/04/08 02:14:41;;;;;;;6.80;6.27;;;2.20;99.90;;;3.08;81.24;98492.63;5145695;28;20204;-61
2021/04/08 02:17:17;;;;;;;7.77;7.17;;;2.20;99.90;;;3.02;81.99;98494.56;5144200;28;20200;-61
2021/04/08 02:19:51;;;;;;;7.47;6.97;;;2.20;99.90;;;2.99;82.06;98494.25;5153339;28;20752;-60
2021/04/08 02:22:24;;;;;;;7.63;6.93;;;2.20;99.90;;;2.87;82.03;98508.22;5143725;28;20283;-60
2021/04/08 02:24:56;;;;;;;7.97;7.30;;;2.00;99.90;;;2.79;83.06;98506.59;5163020;28;20205;-61
2021/04/08 02:27:29;;;;;;;7.67;6.97;;;2.00;99.90;;;2.69;83.15;98503.19;5129806;28;20200;-61
2021/04/08 02:30:01;;;;;;;7.97;7.27;;;1.90;99.90;;;2.67;82.91;98517.28;5145551;28;20295;-61
2021/04/08 02:32:36;;;;;;;8.30;7.60;;;1.90;99.90;;;2.58;83.38;98510.44;5145801;28;20198;-61
2021/04/08 02:35:11;;;;;;;7.93;7.23;;;1.80;99.90;;;2.55;84.26;98517.69;5140336;28;20203;-60
2021/04/08 02:37:44;;;;;;;8.97;8.17;;;1.80;99.90;;;2.56;84.66;98511.91;5142286;28;20621;-61
2021/04/08 02:40:20;;;;;;;8.20;7.50;;;1.90;99.90;;;2.57;84.54;98517.09;5130559;28;20237;-62
2021/04/08 02:42:52;;;;;;;7.90;7.20;;;1.80;99.90;;;2.55;84.95;98513.56;5126971;28;20242;-60
2021/04/08 02:45:24;;;;;;;8.63;7.70;;;1.90;99.90;;;2.61;84.01;98524.25;5145062;28;20207;-62
2021/04/08 02:47:57;;;;;;;8.87;8.07;;;1.80;99.90;;;2.55;84.55;98527.78;5157584;28;20272;-61
2021/04/08 02:50:29;;;;;;;9.47;8.67;;;1.80;99.90;;;2.52;84.86;98533.44;5126871;28;20217;-61
2021/04/08 02:53:07;;;;;;;9.07;8.27;;;1.70;99.90;;;2.58;85.17;98526.47;5145137;28;20208;-61
2021/04/08 02:55:47;;;;;;;9.23;8.43;;;1.80;99.90;;;2.58;84.79;98518.91;5142478;28;20210;-61
2021/04/08 02:58:20;;;;;;;9.27;8.40;;;1.70;99.90;;;2.51;85.64;98525.72;5144676;28;20200;-58
2021/04/08 03:00:56;;;;;;;10.07;8.87;;;1.70;99.90;;;2.56;85.22;98520.38;5146957;28;20317;-61
2021/04/08 03:03:36;;;;;;;9.10;8.20;;;1.70;99.90;;;2.52;85.10;98537.56;5160920;28;20204;-59
2021/04/08 03:06:12;;;;;;;9.03;8.23;;;1.70;99.90;;;2.49;84.65;98528.09;5134126;28;20243;-59
2021/04/08 03:08:49;;;;;;;10.90;9.87;;;1.70;99.90;;;2.55;85.08;98538.78;5134920;28;20201;-60
2021/04/08 03:11:26;;;;;;;9.77;8.87;;;1.70;99.90;;;2.46;85.06;98540.38;5145328;28;20313;-59
2021/04/08 03:14:01;;;;;;;10.33;9.43;;;1.70;99.90;;;2.43;84.28;98541.00;5144887;28;20207;-59
2021/04/08 03:16:39;;;;;;;10.33;9.43;;;1.70;99.90;;;2.44;84.36;98539.34;5144095;28;20892;-59
2021/04/08 03:19:20;;;;;;;10.67;9.73;;;1.70;99.90;;;2.44;84.76;98536.84;5143003;28;20207;-59
2021/04/08 03:21:52;;;;;;;11.30;10.20;;;1.70;99.90;;;2.46;85.17;98538.78;5125267;28;20615;-59
2021/04/08 03:24:28;;;;;;;11.43;10.43;;;1.70;99.90;;;2.50;85.09;98539.97;5143971;28;20664;-61
2021/04/08 03:27:01;;;;;;;10.97;9.97;;;1.80;99.90;;;2.65;84.06;98535.53;5134255;28;20208;-58
2021/04/08 03:29:34;;;;;;;10.37;9.47;;;1.80;99.90;;;2.58;85.04;98544.13;5140830;28;20571;-59
2021/04/08 03:32:07;;;;;;;11.53;10.07;;;1.80;99.90;;;2.56;85.47;98538.03;5133797;28;20321;-59
2021/04/08 03:34:41;;;;;;;10.47;9.67;;;1.80;99.90;;;2.54;85.29;98546.19;5137270;28;20200;-61
2021/04/08 03:37:13;;;;;;;9.90;9.10;;;1.80;99.90;;;2.54;85.45;98541.16;5145293;28;20290;-61
2021/04/08 03:39:47;;;;;;;10.53;9.53;;;1.80;99.90;;;2.50;85.80;98550.06;5144102;28;20204;-60
2021/04/08 03:42:19;;;;;;;10.17;9.30;;;1.80;99.90;;;2.52;86.33;98548.59;5143933;28;20317;-60
2021/04/08 03:44:51;;;;;;;9.77;8.90;;;1.80;99.90;;;2.58;86.22;98549.19;5144522;28;20204;-60
2021/04/08 03:47:24;;;;;;;10.00;9.10;;;1.80;99.90;;;2.56;86.06;98550.66;5143185;28;20315;-57
2021/04/08 03:49:58;;;;;;;10.93;9.83;;;1.80;99.90;;;2.56;86.48;98545.59;5142109;28;20211;-60
2021/04/08 03:52:31;;;;;;;10.60;9.60;;;1.80;99.90;;;2.53;86.24;98545.31;5143538;28;20229;-60
2021/04/08 03:55:05;;;;;;;9.53;8.73;;;1.80;99.90;;;2.50;86.84;98545.00;5147520;28;20307;-60
2021/04/08 03:57:40;;;;;;;10.53;9.63;;;1.80;99.90;;;2.47;86.31;98549.75;5143696;28;20296;-61
2021/04/08 04:00:14;;;;;;;9.60;8.83;;;1.70;99.90;;;2.47;86.48;98554.78;5143550;28;20251;-60
2021/04/08 04:02:46;;;;;;;10.90;9.90;;;1.70;99.90;;;2.47;85.92;98554.78;5134504;28;20200;-60
2021/04/08 04:05:20;;;;;;;10.37;9.47;;;1.70;99.90;;;2.45;86.26;98557.16;5147464;28;20218;-60
2021/04/08 04:07:52;;;;;;;9.53;8.83;;;1.70;99.90;;;2.41;86.33;98564.28;5142983;28;20205;-59
2021/04/08 04:10:24;;;;;;;8.83;8.13;;;1.70;99.90;;;2.37;86.75;98568.09;5135543;28;20607;-59
2021/04/08 04:12:57;;;;;;;11.30;9.73;;;1.60;99.90;;;2.32;86.31;98573.44;5142894;28;20246;-60
2021/04/08 04:15:30;;;;;;;9.07;8.17;;;1.50;99.90;;;2.31;86.88;98567.50;5144351;28;20196;-60
2021/04/08 04:18:04;;;;;;;10.17;9.27;;;1.60;99.90;;;2.32;87.18;98568.38;5143454;28;20231;-59
2021/04/08 04:20:38;;;;;;;9.93;9.03;;;1.60;99.90;;;2.30;86.48;98572.41;5142848;28;20224;-60
2021/04/08 04:23:10;;;;;;;9.20;8.50;;;1.60;99.90;;;2.33;86.05;98567.66;5140860;28;20214;-59
2021/04/08 04:25:42;;;;;;;9.37;8.57;;;1.60;99.90;;;2.32;85.93;98579.41;5138845;28;20200;-61
2021/04/08 04:28:14;;;;;;;10.97;9.87;;;1.60;99.90;;;2.28;86.58;98576.41;5143696;28;20218;-60
2021/04/08 04:30:46;;;;;;;10.63;9.77;;;1.50;99.90;;;2.27;87.10;98579.66;5139884;28;20226;-61
2021/04/08 04:33:18;;;;;;;10.57;9.57;;;1.50;99.90;;;2.27;86.49;98584.72;5144952;28;20577;-59
2021/04/08 04:35:53;;;;;;;11.00;9.87;;;1.50;99.90;;;2.30;85.83;98582.50;5144321;28;20310;-61
2021/04/08 04:38:26;;;;;;;10.17;9.27;;;1.50;99.90;;;2.26;85.62;98588.84;5143097;28;20205;-60
2021/04/08 04:43:33;;;;;;;10.37;9.30;;;1.40;99.90;;;2.23;85.87;98594.50;5184950;28;20241;-58
2021/04/08 04:46:05;;;;;;;11.17;10.10;;;1.40;99.90;;;2.20;86.11;98609.31;5187320;28;20286;-56
2021/04/08 04:48:37;;;;;;;11.83;10.63;;;1.40;99.90;;;2.20;86.44;98599.22;5187083;28;20224;-59
2021/04/08 04:51:11;;;;;;;10.93;9.13;;;1.40;99.90;;;2.19;85.56;98604.09;5188062;28;20278;-56
2021/04/08 04:53:43;;;;;;;10.47;9.67;;;1.30;99.90;;;2.14;86.21;98611.19;5187758;28;20214;-58
2021/04/08 04:56:15;;;;;;;10.43;9.53;;;1.30;99.90;;;2.14;85.93;98608.66;5187991;28;20205;-58
2021/04/08 04:58:47;;;;;;;10.60;9.70;;;1.30;99.90;;;1.98;85.33;98615.44;5186938;28;20202;-59
2021/04/08 05:01:20;;;;;;;10.97;10.07;;;1.10;99.90;;;1.93;85.99;98622.50;5187061;28;20314;-57
2021/04/08 05:03:52;;;;;;;10.17;9.27;;;1.10;99.90;;;1.88;85.44;98612.69;5186817;28;20669;-60
2021/04/08 05:06:25;;;;;;;10.40;9.50;;;1.10;99.90;;;1.91;86.25;98618.03;5185624;28;20202;-58
2021/04/08 05:09:01;;;;;;;10.40;9.50;;;1.10;99.90;;;1.95;85.31;98616.00;5187038;28;20711;-58
2021/04/08 05:11:33;;;;;;;9.70;8.90;;;1.20;99.90;;;1.89;85.96;98620.44;5187756;28;20218;-57
2021/04/08 05:14:05;;;;;;;10.73;9.70;;;1.10;99.90;;;1.98;85.32;98626.41;5186657;28;20208;-57
2021/04/08 05:16:37;;;;;;;10.40;9.50;;;1.20;99.90;;;2.01;85.33;98628.34;5186604;28;20577;-57
2021/04/08 05:19:09;;;;;;;9.53;8.73;;;1.20;99.90;;;2.06;85.75;98626.28;5187507;28;20205;-58
2021/04/08 05:21:42;;;;;;;10.83;9.93;;;1.20;99.90;;;2.15;85.74;98638.22;5186580;28;20233;-57
2021/04/08 05:24:14;;;;;;;12.63;10.70;;;1.30;99.90;;;2.14;84.99;98636.41;5184096;28;20197;-62
2021/04/08 05:26:46;;;;;;;11.07;10.20;;;1.30;99.90;;;2.22;85.65;98637.19;5187053;28;20348;-58
2021/04/08 05:29:18;;;;;;;11.23;10.23;;;1.40;99.90;;;2.27;85.83;98645.25;5187366;28;20199;-54
2021/04/08 05:31:50;;;;;;;11.20;10.27;;;1.40;99.90;;;2.29;85.33;98642.13;5176487;28;20305;-57
2021/04/08 05:34:23;;;;;;;12.10;11.00;;;1.40;99.90;;;2.36;84.68;98649.56;5173005;28;20205;-58
2021/04/08 05:36:55;;;;;;;11.93;10.73;;;1.50;99.90;;;2.47;85.16;98643.09;5186487;28;20607;-58
2021/04/08 05:39:28;;;;;;;10.83;9.83;;;1.60;99.90;;;2.57;84.71;98647.41;5187446;28;20203;-58
2021/04/08 05:42:00;;;;;;;12.10;10.80;;;1.60;99.90;;;2.58;84.55;98656.78;5186456;28;20421;-57
2021/04/08 05:44:32;;;;;;;11.20;10.13;;;1.60;99.90;;;2.66;84.70;98664.41;5185755;28;20221;-57
2021/04/08 05:47:05;;;;;;;11.63;10.53;;;1.70;99.90;;;2.85;84.05;98656.13;5185814;28;20210;-58
2021/04/08 05:49:37;;;;;;;11.70;10.70;;;1.80;99.90;;;2.98;84.37;98659.13;5186965;28;20230;-57
2021/04/08 05:52:10;;;;;;;11.30;10.37;;;1.90;99.90;;;3.10;83.52;98664.50;5186724;28;20593;-60
2021/04/08 05:54:42;;;;;;;12.33;11.10;;;2.00;99.90;;;3.15;83.23;98669.25;5184120;28;20201;-60
2021/04/08 05:57:14;;;;;;;11.27;10.27;;;2.10;99.90;;;3.11;82.77;98666.28;5184810;28;20578;-60
2021/04/08 05:59:46;;;;;;;10.10;9.20;;;2.10;99.90;;;3.21;82.91;98674.03;5185057;28;20226;-60
2021/04/08 06:02:18;;;;;;;10.53;9.63;;;2.20;99.90;;;3.32;82.33;98677.56;5182226;28;20586;-59
2021/04/08 06:04:51;;;;;;;10.37;9.57;;;2.20;99.90;;;3.35;81.63;98672.84;5184945;28;20675;-57
2021/04/08 06:07:23;;;;;;;10.07;9.27;;;2.30;99.90;;;3.36;82.02;98674.63;5184109;28;20708;-59
2021/04/08 06:09:55;;;;;;;9.97;9.07;;;2.30;99.90;;;3.39;81.32;98674.94;5184350;28;20206;-58
2021/04/08 06:12:27;;;;;;;10.97;9.87;;;2.30;99.90;;;3.36;81.13;98679.69;5185299;28;20713;-58
2021/04/08 06:15:00;;;;;;;10.77;9.87;;;2.20;99.90;;;3.44;80.64;98688.03;5183860;28;20221;-58
2021/04/08 06:17:32;;;;;;;10.97;9.83;;;2.30;99.90;;;3.46;80.81;98687.41;5180527;28;20733;-58
2021/04/08 06:20:07;;;;;;;10.60;9.70;;;2.40;99.90;;;3.54;80.53;98686.50;5193663;28;20684;-58
2021/04/08 06:22:40;;;;;;;10.43;9.53;;;2.40;99.90;;;3.60;80.32;98683.69;5186651;28;20668;-57
2021/04/08 06:25:13;;;;;;;11.40;10.50;;;2.50;99.90;;;3.60;80.71;98683.69;5186338;28;20286;-58
2021/04/08 06:27:45;;;;;;;11.13;10.13;;;2.50;99.90;;;3.60;80.15;98687.09;5185041;28;20681;-58
2021/04/08 06:30:19;;;;;;;9.87;9.00;;;2.50;99.90;;;3.54;80.33;98691.56;5184137;28;20229;-56
2021/04/08 06:32:52;;;;;;;11.23;10.20;;;2.50;99.90;;;3.66;79.66;98690.97;5185761;28;20223;-55
2021/04/08 06:35:25;;;;;;;10.73;9.77;;;2.60;99.90;;;3.67;80.14;98693.66;5185815;28;20200;-57
2021/04/08 06:37:58;;;;;;;11.67;10.67;;;2.70;99.90;;;3.72;80.03;98689.97;5186212;28;20682;-57
2021/04/08 06:40:30;;;;;;;11.23;10.33;;;2.70;99.90;;;3.89;79.29;98688.13;5185820;28;20202;-56
2021/04/08 06:43:03;;;;;;;10.77;9.87;;;2.80;99.90;;;4.02;78.36;98694.53;5185574;28;20321;-59
2021/04/08 06:45:35;;;;;;;10.83;9.83;;;2.90;99.90;;;4.37;78.38;98688.50;5185602;28;20285;-58
2021/04/08 06:48:16;;;;;;;10.20;9.30;;;3.30;99.90;;;4.91;77.06;98691.84;5185707;28;20300;-59
2021/04/08 06:50:51;;;;;;;9.27;8.33;;;3.60;99.90;;;5.29;74.84;98691.94;5176201;28;20232;-59
2021/04/08 06:53:26;;;;;;;10.40;9.43;;;3.90;99.90;;;5.96;71.43;98692.03;5185596;28;20294;-61
2021/04/08 06:55:59;;;;;;;10.13;8.93;;;4.40;99.90;;;6.40;68.82;98687.41;5185661;28;20290;-58
2021/04/08 06:58:31;;;;;;;9.40;8.50;;;4.70;99.90;;;6.43;65.56;98688.56;5185679;28;20205;-57
2021/04/08 07:01:13;;;;;;;9.63;8.83;;;4.80;99.90;;;6.51;66.01;98690.13;5184650;28;20233;-60
2021/04/08 07:03:45;;;;;;;9.73;8.80;;;4.70;99.90;;;6.54;65.50;98695.44;5185555;28;20669;-59
2021/04/08 07:06:18;;;;;;;9.33;8.43;;;4.90;99.90;;;6.58;65.09;98694.09;5184670;28;20265;-59
2021/04/08 07:08:51;;;;;;;9.90;8.90;;;4.90;99.90;;;6.59;63.91;98698.41;5185148;28;20202;-59
2021/04/08 07:11:24;;;;;;;9.63;8.73;;;4.90;99.90;;;6.64;62.89;98698.78;5185303;28;20313;-60
2021/04/08 07:13:56;;;;;;;9.50;8.30;;;4.80;99.90;;;6.86;62.49;98691.34;5185171;28;20234;-56
2021/04/08 07:16:30;;;;;;;9.67;8.63;;;5.00;99.90;;;6.88;61.64;98693.25;5184811;28;20202;-59
2021/04/08 07:19:04;;;;;;;8.77;8.00;;;5.10;99.90;;;7.27;60.62;98701.53;5185095;28;20203;-58
2021/04/08 07:21:38;;;;;;;8.43;7.60;;;5.30;99.90;;;7.61;59.57;98701.06;5184935;28;20232;-60
2021/04/08 07:24:15;;;;;;;8.87;8.07;;;5.70;99.90;;;7.85;58.28;98691.97;5184854;28;20218;-58
2021/04/08 07:26:59;;;;;;;8.77;8.07;;;5.80;99.90;;;7.76;58.59;98701.41;5184260;28;20199;-58
2021/04/08 07:30:00;;;;;;;7.93;7.23;;;5.80;99.90;;;8.00;57.44;98699.94;5185217;28;20194;-57
2021/04/08 07:32:33;;;;;;;8.50;7.53;;;6.20;99.90;;;8.06;56.66;98704.63;5161185;28;20250;-58
2021/04/08 07:35:15;;;;;;;9.70;6.87;;;6.40;99.90;;;8.26;56.02;98699.47;5185047;28;20198;-59
2021/04/08 07:37:56;;;;;;;8.40;7.43;;;6.40;99.90;;;8.30;56.25;98703.19;5185123;28;20294;-59
2021/04/08 07:40:29;;;;;;;8.90;7.53;;;6.60;99.90;;;8.29;55.33;98711.56;5185063;28;20293;-59
2021/04/08 07:43:12;;;;;;;8.73;8.00;;;6.70;99.90;;;8.52;55.66;98713.41;5165022;28;20223;-59
2021/04/08 07:45:45;;;;;;;8.60;6.90;;;6.90;99.90;;;8.42;54.14;98719.47;5177787;28;20738;-58
2021/04/08 07:48:17;;;;;;;7.57;6.97;;;6.90;99.90;;;8.42;51.92;98728.75;5184903;28;20742;-60
2021/04/08 07:50:57;;;;;;;8.27;7.43;;;6.60;99.40;;;8.28;52.92;98725.97;5184644;28;20289;-58
2021/04/08 07:53:29;;;;;;;7.87;7.10;;;6.80;99.90;;;8.44;53.71;98730.66;5184272;28;20190;-55
2021/04/08 07:56:03;;;;;;;7.33;6.63;;;7.10;99.40;;;8.60;51.00;98724.22;5184978;28;20210;-58
2021/04/08 07:58:35;;;;;;;7.57;6.90;;;7.20;97.50;;;8.62;50.96;98728.66;5184641;28;20199;-61
2021/04/08 08:01:07;;;;;;;7.73;6.73;;;7.30;97.90;;;8.72;49.12;98736.25;5185011;28;20312;-60
2021/04/08 08:03:42;;;;;;;7.47;6.73;;;7.30;95.90;;;8.72;49.29;98730.28;5184918;28;20213;-59
2021/04/08 08:06:14;;;;;;;7.30;6.60;;;7.50;96.00;;;8.92;48.01;98730.16;5184774;28;20202;-59
2021/04/08 08:08:49;;;;;;;6.87;6.23;;;7.70;94.60;;;8.97;47.44;98739.06;5184798;28;20325;-57
2021/04/08 08:11:24;;;;;;;7.30;6.60;;;7.70;94.80;;;9.06;47.12;98732.88;5185051;28;20691;-59
2021/04/08 08:13:56;;;;;;;9.13;6.43;;;7.70;93.70;;;9.06;46.52;98727.78;5184868;28;20202;-61
2021/04/08 08:16:28;;;;;;;8.33;6.47;;;7.70;92.90;;;9.01;45.70;98733.44;5185379;28;20245;-59
2021/04/08 08:19:01;;;;;;;7.10;6.40;;;7.80;92.60;;;9.29;45.55;98730.44;5187471;28;20252;-58
2021/04/08 08:21:36;;;;;;;7.17;6.50;;;8.00;92.30;;;9.19;44.68;98733.06;5189114;28;20236;-57
2021/04/08 08:24:11;;;;;;;7.87;7.10;;;7.90;92.30;;;8.82;45.58;98732.78;5188966;28;20212;-57
2021/04/08 08:26:47;;;;;;;7.23;6.53;;;7.40;91.90;;;8.24;46.37;98740.88;5188964;28;20632;-57
2021/04/08 08:29:20;;;;;;;6.90;6.20;;;6.90;92.40;;;8.22;47.76;98737.31;5188596;28;20208;-57
2021/04/08 08:31:56;;;;;;;7.70;6.27;;;6.80;93.80;;;7.79;47.49;98742.38;5189073;28;20321;-58
2021/04/08 08:34:30;;;;;;;7.70;6.87;;;6.50;93.20;;;7.36;47.18;98746.44;5188866;28;20309;-57
2021/04/08 08:37:07;;;;;;;8.03;6.67;;;6.10;92.40;;;7.40;48.10;98750.13;5188554;28;20208;-56
2021/04/08 08:39:42;;;;;;;7.17;6.47;;;6.00;94.00;;;7.46;50.34;98748.09;5188566;28;20504;-59
2021/04/08 08:42:18;;;;;;;7.50;6.80;;;6.30;95.00;;;8.09;49.34;98743.94;5188174;28;20320;-57
2021/04/08 08:44:53;;;;;;;7.33;6.73;;;7.00;94.60;;;8.49;47.36;98742.09;5188366;28;20293;-58
2021/04/08 08:47:29;;;;;;;6.67;5.90;;;7.40;93.40;;;8.62;47.96;98738.88;5188515;28;20232;-55
2021/04/08 08:50:09;;;;;;;6.80;6.20;;;7.50;92.90;;;8.82;46.55;98742.09;5188270;28;20238;-57
2021/04/08 08:52:43;;;;;;;6.70;5.93;;;7.50;92.30;;;8.66;45.58;98745.09;5188494;28;20309;-57
2021/04/08 08:55:18;;;;;;;6.50;6.00;;;7.60;91.30;;;8.06;44.79;98738.63;5188313;28;20293;-55
2021/04/08 08:57:53;;;;;;;6.50;5.90;;;7.20;90.80;;;8.29;46.58;98737.91;5188088;28;20237;-59
2021/04/08 09:00:28;;;;;;;8.23;6.47;;;7.30;92.10;;;8.43;45.67;98741.59;5188101;28;20226;-55
2021/04/08 09:03:06;;;;;;;6.87;6.17;;;7.30;91.50;;;8.62;45.85;98743.06;5186654;28;20229;-58
2021/04/08 09:05:39;;;;;;;7.40;6.40;;;7.40;91.70;;;8.71;44.01;98744.69;5179153;28;20194;-55
2021/04/08 09:08:16;;;;;;;5.97;5.43;;;7.40;90.20;;;8.59;43.46;98747.94;5186258;28;20649;-56
2021/04/08 09:10:57;;;;;;;6.57;5.90;;;7.30;88.40;;;8.63;43.51;98740.63;5184579;28;20654;-50
2021/04/08 09:13:30;;;;;;;7.00;6.00;;;7.30;88.20;;;8.45;43.46;98749.38;5186938;28;20205;-55
2021/04/08 09:16:14;;;;;;;6.57;5.97;;;7.10;90.30;;;8.20;42.84;98746.50;5187747;28;20718;-59
2021/04/08 09:19:00;;;;;;;7.10;5.63;;;7.00;88.30;;;7.98;44.19;98744.75;5186344;28;20229;-54
2021/04/08 09:21:47;;;;;;;6.17;5.47;;;6.80;90.10;;;7.97;44.22;98747.19;5188778;28;20227;-57
2021/04/08 09:24:23;;;;;;;7.10;6.50;;;6.60;90.50;;;7.84;44.70;98741.09;5189551;28;20199;-60
2021/04/08 09:26:59;;;;;;;6.63;6.03;;;6.50;90.40;;;8.03;43.83;98738.38;5186362;28;20665;-59
2021/04/08 09:29:51;;;;;;;7.00;5.87;;;6.60;89.30;;;8.13;41.69;98734.94;5185337;28;20199;-57
2021/04/08 09:32:31;;;;;;;7.03;5.90;;;6.60;87.20;;;8.06;42.64;98746.25;5186648;28;20218;-58
2021/04/08 09:35:20;;;;;;;6.30;5.70;;;6.60;87.00;;;8.17;42.37;98743.69;5187443;28;20248;-53
2021/04/08 09:38:20;;;;;;;6.23;5.63;;;6.70;87.90;;;8.08;42.52;98744.72;5185824;28;20257;-53
2021/04/08 09:40:57;;;;;;;6.60;6.00;;;6.70;87.60;;;7.94;42.34;98742.72;5177878;28;20685;-63
2021/04/08 09:43:33;;;;;;;6.60;6.00;;;6.70;87.00;;;7.95;42.92;98741.94;5186311;28;20230;-53
2021/04/08 09:46:11;;;;;;;6.03;5.43;;;6.80;87.70;;;7.77;43.38;98740.47;5185889;28;20285;-60
2021/04/08 09:48:54;;;;;;;6.27;5.67;;;6.70;87.40;;;7.71;44.26;98737.41;5179187;28;20280;-56
2021/04/08 09:51:35;;;;;;;6.93;6.20;;;6.50;89.30;;;7.81;43.64;98739.94;5188654;28;20214;-59
2021/04/08 09:54:12;;;;;;;7.27;6.67;;;6.40;89.20;;;7.96;42.97;98737.78;5186332;28;20618;-58
2021/04/08 09:56:54;;;;;;;7.07;6.43;;;6.40;89.40;;;7.97;42.57;98726.81;5186283;28;20290;-58
2021/04/08 09:59:27;;;;;;;8.30;7.03;;;6.60;87.60;;;7.98;43.38;98739.66;5186635;28;20209;-58
2021/04/08 10:02:00;;;;;;;7.70;7.00;;;6.50;88.50;;;7.80;42.68;98733.97;5186798;28;20257;-57
2021/04/08 10:04:32;;;;;;;7.80;7.17;;;6.50;87.60;;;7.49;43.26;98738.16;5185765;28;20205;-60
2021/04/08 10:07:07;;;;;;;7.33;6.57;;;6.40;87.60;;;7.62;44.71;98732.47;5184370;28;20199;-57
2021/04/08 10:09:54;;;;;;;8.30;7.37;;;6.30;90.10;;;7.65;44.17;98732.72;5186026;28;20573;-56
2021/04/08 10:12:30;;;;;;;7.60;7.00;;;6.40;89.40;;;7.80;44.77;98735.63;5185785;28;20218;-60
2021/04/08 10:15:03;;;;;;;6.60;6.10;;;6.50;90.20;;;7.88;43.68;98727.84;5186389;28;20651;-57
2021/04/08 10:17:38;;;;;;;6.73;6.17;;;6.50;88.40;;;7.94;42.40;98732.53;5185912;28;20301;-59
2021/04/08 10:20:12;;;;;;;7.23;6.60;;;6.60;86.70;;;7.95;43.06;98730.88;5185609;28;20209;-58
2021/04/08 10:22:46;;;;;;;7.77;6.93;;;6.60;88.50;;;8.09;43.19;98733.78;5185580;28;20227;-58
2021/04/08 10:25:18;;;;;;;8.20;6.90;;;6.70;88.60;;;8.11;42.89;98727.16;5186066;28;20195;-56
2021/04/08 10:27:55;;;;;;;7.60;6.90;;;6.90;87.00;;;8.00;43.02;98722.84;5185725;28;20645;-56
2021/04/08 10:30:34;;;;;;;7.07;6.47;;;6.80;87.30;;;7.97;42.53;98724.28;5185646;28;20289;-58
2021/04/08 10:33:21;;;;;;;8.33;7.43;;;6.80;87.30;;;7.59;41.70;98717.84;5184780;28;20206;-57
2021/04/08 10:35:53;;;;;;;7.53;6.67;;;6.50;84.40;;;7.55;43.76;98725.94;5184134;28;20289;-61
2021/04/08 10:38:26;;;;;;;6.83;6.17;;;6.40;88.00;;;7.32;43.70;98729.13;5183601;28;20208;-57
2021/04/08 10:40:59;;;;;;;7.77;6.60;;;6.30;87.80;;;7.37;44.33;98724.44;5183015;28;20241;-57
2021/04/08 10:43:32;;;;;;;7.90;7.20;;;6.20;88.70;;;7.39;45.39;98733.09;5199378;22;20755;-60
2021/04/08 10:46:04;;;;;;;7.07;6.47;;;6.30;90.30;;;7.46;45.68;98720.13;5188154;28;20199;-61
2021/04/08 10:48:37;;;;;;;8.23;7.43;;;6.40;90.30;;;7.64;45.56;98716.56;5186794;28;20207;-60
2021/04/08 10:51:14;;;;;;;6.97;5.90;;;6.50;90.30;;;7.85;44.39;98707.22;5184492;28;20242;-60
2021/04/08 10:53:47;;;;;;;7.27;6.63;;;6.80;90.10;;;7.80;45.36;98715.25;5189852;28;20719;-61
2021/04/08 10:56:24;;;;;;;6.97;6.37;;;6.70;89.40;;;7.79;43.79;98716.91;5203020;28;20582;-60
2021/04/08 10:59:16;;;;;;;7.33;6.63;;;6.60;87.90;;;7.73;44.07;98720.63;5200539;28;20201;-60
2021/04/08 11:01:50;;;;;;;8.17;6.63;;;6.50;88.90;;;7.84;44.62;98725.81;5198695;28;20218;-59
2021/04/08 11:04:23;;;;;;;7.00;6.37;;;6.50;89.30;;;7.91;44.70;98719.56;5201472;28;20471;-59
2021/04/08 11:06:58;;;;;;;7.77;6.63;;;6.70;90.10;;;7.86;44.36;98723.38;5188957;28;20214;-58